ANN weather

Annette Island Airport
Annette, Alaska, United States

Public forecast

Using degrees Fahrenheit for public forecast. Weather courtesy of forecast.io.

METAR (pilot weather report)

Retrieved 2019/05/19 15:53 UTC (2 hours ago):

PANT 191553Z AUTO 31005KT 10SM CLR 12/09 A2975 RMK SLP075 T01220089 TSNO VIA AUTODIAL

TAF (pilot weather forecast)

Closest forecast is Ketchikan International Airport, 19.4 nm (36.0 km) NNW. Retrieved 2019/05/19 12:22 UTC (5 hours ago):

TAF PAKT 191120Z 1912/2012 VRB03KT P6SM SCT100 FM191800 12007KT P6SM BKN100 FM200600 30003KT P6SM FEW100 AMD LTD TO CLD VIS AND WIND 1912/1915